Latest Weather Observations for Walgett

IDN60801

Issued at 4:42 pm EDT Wednesday 19 December 2018 (issued every 10 minutes, with the page automatically refreshed every 10 minutes)

About weather observations | Map of weather stations | Latest weather observations for NSW | Other Formats
Station Details ID: 052088 Name: WALGETT AIRPORT AWS Lat: -30.04 Lon: 148.12 Height: 133.0 m
Data from the previous 72 hours. | See also: Recent months at Walgett
Date/Time
EDT
Temp
°C
App
Temp
°C
Dew
Point
°C
Rel
Hum
%
Delta-T
°C
Wind Press
QNH
hPa
Press
MSL
hPa
Rain since
9am
mm
Dir  Spd
km/h
Gust
km/h
Spd
kts
Gust
kts
19/04:30pm 40.2 38.0 12.1 19 17.2 N 15 24 8 13 1005.8 1005.0 0.0
19/04:00pm 40.8 38.6 13.4 20 17.1 N 17 22 9 12 1006.4 1005.6 0.0
19/03:30pm 40.7 38.9 13.3 20 17.1 WNW 15 28 8 15 1006.9 1006.2 0.0
19/03:00pm 39.8 38.6 14.1 22 16.2 N 13 22 7 12 1007.4 1006.7 0.0
19/02:30pm 39.7 37.7 14.0 22 16.1 NNE 17 30 9 16 1007.9 1007.2 0.0
19/02:00pm 38.1 35.8 14.0 24 15.0 N 19 33 10 18 1008.5 1007.8 0.0
19/01:30pm 39.0 36.3 14.7 23 15.3 NNE 22 32 12 17 1008.9 1008.2 0.0
19/01:00pm 39.0 37.0 15.4 25 15.1 N 20 32 11 17 1009.3 1008.6 0.0
19/12:30pm 37.3 34.6 15.7 27 13.8 N 24 39 13 21 1010.0 1009.2 0.0
19/12:00pm 36.7 34.6 16.3 30 13.1 N 22 33 12 18 1010.4 1009.6 0.0
19/11:30am 35.7 33.7 16.4 31 12.3 N 22 32 12 17 1010.8 1010.0 0.0
19/11:00am 34.6 32.8 16.9 35 11.4 NNE 22 33 12 18 1011.1 1010.3 0.0
19/10:30am 34.8 33.4 17.1 35 11.4 N 20 32 11 17 1011.2 1010.4 0.0
19/10:00am 33.9 32.5 18.0 39 10.3 NNE 22 32 12 17 1011.4 1010.6 0.0
19/09:30am 31.9 29.5 17.4 42 9.3 NNE 26 44 14 24 1011.4 1010.6 0.0
19/09:00am 31.1 28.3 17.4 44 8.8 NNE 28 37 15 20 1011.1 1010.3 0.0
19/08:30am 30.9 27.5 17.6 45 8.5 NNE 32 39 17 21 1011.0 1010.2 0.0
19/08:00am 30.1 26.4 17.5 46 8.0 NNE 33 41 18 22 1010.6 1009.8 0.0
19/07:30am 29.5 26.3 17.3 47 7.7 NNE 30 39 16 21 1010.3 1009.5 0.0
19/07:00am 29.1 27.2 16.6 46 7.9 NNE 22 28 12 15 1010.0 1009.2 0.0
19/06:30am 28.4 26.9 16.3 47 7.5 NE 19 24 10 13 1009.6 1008.8 0.0
19/06:00am 28.0 26.9 16.3 49 7.3 NNE 17 20 9 11 1009.0 1008.3 0.0
19/05:30am 27.7 26.7 15.7 48 7.4 NE 15 17 8 9 1008.5 1007.8 0.0
19/05:00am 28.0 26.9 15.3 46 7.8 NNE 15 19 8 10 1007.9 1007.2 0.0
19/04:30am 27.8 26.6 14.1 43 8.2 N 13 15 7 8 1007.8 1007.1 0.0
19/04:00am 27.2 25.7 13.2 42 8.3 NNE 13 15 7 8 1007.5 1006.8 0.0
19/03:30am 27.3 25.7 12.9 41 8.5 NNE 13 15 7 8 1007.4 1006.7 0.0
19/03:00am 27.0 25.6 12.3 40 8.6 NE 11 13 6 7 1007.5 1006.8 0.0
19/02:30am 27.4 26.1 11.4 37 9.2 NE 9 11 5 6 1007.6 1006.9 0.0
19/02:00am 28.8 27.8 12.2 35 9.7 NE 9 9 5 5 1007.8 1007.1 0.0
19/01:30am 29.0 28.4 11.6 34 10.1 ENE 6 9 3 5 1007.9 1007.2 0.0
19/01:00am 29.6 29.0 11.6 33 10.5 ENE 6 7 3 4 1008.2 1007.5 0.0
19/12:30am 30.4 29.1 11.4 31 11.1 ENE 9 11 5 6 1008.5 1007.8 0.0
19/12:00am 31.4 29.8 11.7 29 11.6 E 11 13 6 7 1008.6 1007.9 0.0
 
Date/Time
EDT
Temp
°C
App
Temp
°C
Dew
Point
°C
Rel
Hum
%
Delta-T
°C
Wind Press
QNH
hPa
Press
MSL
hPa
Rain since
9am
mm
Dir  Spd
km/h
Gust
km/h
Spd
kts
Gust
kts
18/11:30pm 31.8 31.0 11.6 29 11.9 E 7 9 4 5 1008.7 1008.0 0.0
18/11:00pm 31.7 30.5 11.5 29 11.9 ESE 9 13 5 7 1008.8 1008.1 0.0
18/10:30pm 31.1 29.9 10.4 28 11.9 ESE 7 9 4 5 1008.6 1007.9 0.0
18/10:00pm 32.4 31.7 12.1 29 12.1 NE 7 9 4 5 1008.4 1007.7 0.0
18/09:30pm 32.9 32.0 11.4 27 12.7 E 7 9 4 5 1008.2 1007.5 0.0
18/09:00pm 34.2 33.1 12.0 26 13.3 E 9 9 5 5 1008.0 1007.3 0.0
18/08:30pm 35.4 34.6 11.7 23 14.2 ENE 7 9 4 5 1007.7 1007.0 0.0
18/08:00pm 36.7 35.3 12.2 23 14.8 E 11 15 6 8 1007.4 1006.7 0.0
18/07:30pm 37.6 36.4 11.5 21 15.7 ENE 9 13 5 7 1007.1 1006.4 0.0
18/07:00pm 37.9 36.0 11.8 21 15.8 ENE 13 17 7 9 1006.8 1006.1 0.0
18/06:30pm 38.7 37.4 12.5 21 16.0 ENE 11 13 6 7 1006.7 1005.9 0.0
18/06:00pm 38.5 37.1 12.3 21 16.0 N 11 17 6 9 1006.6 1005.8 0.0
18/05:30pm 39.0 36.4 12.0 20 16.4 NE 17 30 9 16 1006.7 1005.9 0.0
18/05:00pm 39.5 38.2 12.4 20 16.6 NE 11 17 6 9 1006.7 1005.9 0.0
18/04:30pm 38.8 36.9 11.8 20 16.4 N 13 24 7 13 1006.9 1006.2 0.0
18/04:00pm 39.1 37.9 12.8 21 16.2 SE 11 19 6 10 1007.3 1006.6 0.0
18/03:30pm 38.1 37.2 12.7 22 15.6 WNW 9 17 5 9 1007.7 1007.0 0.0
18/03:00pm 36.7 35.7 13.5 25 14.3 SSW 11 20 6 11 1008.0 1007.3 0.0
18/02:30pm 36.9 36.1 13.0 24 14.6 NNW 9 20 5 11 1008.4 1007.7 0.0
18/02:00pm 37.6 36.9 14.2 25 14.6 NNE 11 20 6 11 1008.9 1008.2 0.0
18/01:30pm 38.4 39.0 16.7 28 14.0 SW 9 20 5 11 1009.3 1008.6 0.0
18/01:00pm 36.3 36.4 16.5 31 12.7 NNE 11 24 6 13 1009.8 1009.0 0.0
18/12:30pm 36.1 35.9 16.8 32 12.4 NNE 13 26 7 14 1010.2 1009.4 0.0
18/12:00pm 34.7 34.0 16.5 33 11.6 N 15 28 8 15 1010.5 1009.7 0.0
18/11:30am 33.6 32.7 16.9 37 10.7 N 17 30 9 16 1010.9 1010.1 0.0
18/11:00am 33.4 32.2 17.5 38 10.3 NNW 20 26 11 14 1011.1 1010.3 0.0
18/10:30am 32.4 31.3 17.8 41 9.4 N 20 28 11 15 1011.3 1010.5 0.0
18/10:00am 31.7 30.8 18.3 45 8.7 N 20 32 11 17 1011.3 1010.5 0.0
18/09:30am 30.8 29.5 18.2 47 8.1 N 22 30 12 16 1011.4 1010.6 0.0
18/09:00am 30.0 28.8 18.4 49 7.5 N 22 32 12 17 1011.4 1010.6 0.0
18/08:30am 29.0 27.4 18.4 52 6.8 NNE 24 35 13 19 1011.3 1010.5 0.0
18/08:00am 28.3 26.7 18.4 55 6.4 NNE 24 32 13 17 1011.0 1010.2 0.0
18/07:30am 27.6 26.0 18.3 57 6.0 NNE 24 28 13 15 1010.7 1009.9 0.0
18/07:00am 26.7 24.6 18.0 59 5.5 NE 26 32 14 17 1010.2 1009.4 0.0
18/06:30am 26.2 24.5 18.1 61 5.1 NE 24 30 13 16 1009.9 1009.1 0.0
18/06:00am 26.3 24.5 17.9 60 5.3 NE 24 30 13 16 1009.3 1008.6 0.0
18/05:30am 26.6 24.7 17.7 58 5.6 NE 24 35 13 19 1008.8 1008.1 0.0
18/05:00am 27.1 24.3 16.4 52 6.7 NE 26 33 14 18 1008.4 1007.7 0.0
18/04:30am 27.6 25.7 15.3 47 7.5 NE 19 24 10 13 1008.1 1007.4 0.0
18/04:00am 27.1 26.4 12.0 39 8.8 E 7 11 4 6 1007.7 1007.0 0.0
18/03:30am 28.4 27.4 12.3 37 9.4 E 9 13 5 7 1007.6 1006.9 0.0
18/03:00am 29.8 28.3 13.1 36 10.0 E 13 20 7 11 1007.5 1006.8 0.0
18/02:30am 29.3 26.5 12.7 36 9.8 ESE 19 28 10 15 1007.5 1006.8 0.0
18/02:00am 29.1 26.3 12.5 36 9.8 SE 19 24 10 13 1007.6 1006.9 0.0
18/01:30am 29.8 27.4 12.7 35 10.1 SSE 17 24 9 13 1007.6 1006.9 0.0
18/01:00am 28.1 25.5 12.0 36 9.4 S 17 20 9 11 1007.8 1007.1 0.0
18/12:30am 27.8 25.0 11.4 36 9.4 SSE 17 20 9 11 1008.0 1007.3 0.0
18/12:00am 28.2 26.5 11.3 35 9.7 SSE 11 15 6 8 1007.9 1007.2 0.0
 
Date/Time
EDT
Temp
°C
App
Temp
°C
Dew
Point
°C
Rel
Hum
%
Delta-T
°C
Wind Press
QNH
hPa
Press
MSL
hPa
Rain since
9am
mm
Dir  Spd
km/h
Gust
km/h
Spd
kts
Gust
kts
17/11:30pm 28.2 26.4 10.9 34 9.9 SSE 11 13 6 7 1008.0 1007.3 0.0
17/11:00pm 29.5 27.5 11.5 33 10.5 SSE 13 17 7 9 1007.9 1007.2 0.0
17/10:30pm 30.6 28.4 12.0 32 10.9 SSE 15 17 8 9 1007.7 1007.0 0.0
17/10:00pm 31.5 29.4 12.3 31 11.4 SSE 15 19 8 10 1007.4 1006.7 0.0
17/09:30pm 32.5 30.1 12.7 30 11.9 S 17 20 9 11 1007.1 1006.4 0.0
17/09:00pm 33.4 31.3 12.4 28 12.6 S 15 17 8 9 1006.9 1006.2 0.0
17/08:30pm 34.4 32.4 12.7 27 13.1 SSW 15 20 8 11 1006.5 1005.7 0.0
17/08:00pm 35.5 33.8 11.2 23 14.4 SW 11 15 6 8 1006.1 1005.3 0.0
17/07:30pm 36.1 34.1 10.3 21 15.1 SSW 11 17 6 9 1005.7 1004.9 0.0
17/07:00pm 36.4 34.5 10.6 21 15.3 SW 11 17 6 9 1005.3 1004.5 0.0
17/06:30pm 37.1 35.2 10.4 20 15.8 SSW 11 20 6 11 1005.0 1004.2 0.0
17/06:00pm 37.1 35.6 10.4 20 15.8 SE 9 17 5 9 1004.8 1004.0 0.0
17/05:30pm 37.2 35.7 10.5 20 15.8 SSE 9 17 5 9 1004.8 1004.0 0.0
17/05:00pm 37.1 36.3 11.1 21 15.5 NW 6 9 3 5 1005.0 1004.2 0.0
17/04:30pm 36.8 35.4 10.9 21 15.4 W 9 17 5 9 1005.2 1004.4 0.0
17/04:00pm 36.8 35.2 11.6 22 15.2 N 11 17 6 9 1005.5 1004.7 0.0
17/03:30pm 36.5 34.1 11.3 22 15.0 SSW 15 24 8 13 1006.0 1005.2 0.0
17/03:00pm 36.8 36.0 12.9 24 14.6 ENE 9 15 5 8 1006.4 1005.6 0.0
17/02:30pm 37.1 35.8 12.5 23 15.0 SW 11 19 6 10 1006.6 1005.8 0.0
17/02:00pm 36.3 34.6 13.7 25 14.0 NW 15 26 8 14 1006.9 1006.2 0.0
17/01:30pm 34.6 34.3 15.5 32 12.0 N 11 22 6 12 1007.3 1006.6 0.0
17/01:00pm 34.4 33.6 17.2 36 11.1 N 17 30 9 16 1007.5 1006.8 0.0
17/12:30pm 33.2 33.5 17.8 40 10.0 NE 13 24 7 13 1007.8 1007.1 0.0
17/12:00pm 32.0 33.5 18.9 45 8.6 NNW 9 19 5 10 1008.2 1007.5 0.0
17/11:30am 31.2 32.1 18.5 46 8.2 ENE 11 22 6 12 1008.4 1007.7 0.0
17/11:00am 30.7 32.3 19.1 50 7.6 ENE 9 17 5 9 1008.6 1007.9 0.0
17/10:30am 30.3 31.7 19.6 52 7.0 N 11 19 6 10 1008.7 1008.0 0.0
17/10:00am 28.8 29.8 19.4 56 6.1 NE 13 20 7 11 1008.9 1008.2 0.0
17/09:30am 27.5 28.4 19.3 61 5.3 NE 13 20 7 11 1009.1 1008.4 0.0
17/09:00am 26.6 27.2 19.5 65 4.6 NNE 15 24 8 13 1009.5 1008.7 0.0
17/08:30am 26.0 26.3 19.6 68 4.2 NE 17 22 9 12 1009.5 1008.7 0.0
17/08:00am 25.0 24.0 19.6 72 3.5 NE 24 30 13 16 1009.2 1008.5 0.0
17/07:30am 24.1 23.4 19.4 75 3.0 NE 22 28 12 15 1008.8 1008.1 0.0
17/07:00am 23.4 23.4 18.9 76 2.9 ENE 17 24 9 13 1008.5 1007.8 0.0
17/06:30am 22.7 22.4 18.3 76 2.8 ENE 17 24 9 13 1008.1 1007.4 0.0
17/06:00am 22.5 22.1 18.1 76 2.8 ENE 17 24 9 13 1007.8 1007.1 0.0
17/05:30am 22.7 21.9 18.0 75 2.9 ENE 19 22 10 12 1007.4 1006.7 0.0
17/05:00am 22.9 22.5 18.0 74 3.1 ENE 17 24 9 13 1007.0 1006.3 0.0
17/04:30am 23.1 23.1 18.2 74 3.1 ENE 15 20 8 11 1006.8 1006.1 0.0
17/04:00am 23.6 23.8 18.5 73 3.2 ENE 15 20 8 11 1006.6 1005.8 0.0
17/03:30am 23.9 24.5 18.5 72 3.4 ENE 13 19 7 10 1006.4 1005.6 0.0
17/03:00am 24.3 24.9 18.7 71 3.6 ENE 13 19 7 10 1006.3 1005.5 0.0
17/02:30am 24.9 25.8 19.3 71 3.6 NE 13 17 7 9 1006.2 1005.4 0.0
17/02:00am 25.4 25.9 19.3 69 3.9 NE 15 20 8 11 1006.3 1005.5 0.0
17/01:30am 25.7 25.9 19.3 67 4.1 NNE 17 20 9 11 1006.6 1005.8 0.0
17/01:00am 26.3 26.1 19.4 66 4.5 NNE 19 24 10 13 1006.8 1006.1 0.0
17/12:30am 26.8 26.4 19.4 64 4.8 NNE 20 28 11 15 1006.9 1006.2 0.0
17/12:03am 27.0 26.5 19.1 62 5.1 NE 20 28 11 15 1007.2 1006.5 0.0
17/12:00am 27.0 26.0 18.8 60 5.3 NE 22 28 12 15 1007.2 1006.5 0.0
 
Date/Time
EDT
Temp
°C
App
Temp
°C
Dew
Point
°C
Rel
Hum
%
Delta-T
°C
Wind Press
QNH
hPa
Press
MSL
hPa
Rain since
9am
mm
Dir  Spd
km/h
Gust
km/h
Spd
kts
Gust
kts
16/11:30pm 27.4 25.6 18.7 59 5.6 NE 26 33 14 18 1007.2 1006.5 0.0
16/11:00pm 28.2 26.7 18.6 56 6.2 NE 24 33 13 18 1007.0 1006.3 0.0
16/10:30pm 28.7 27.2 18.5 54 6.6 ENE 24 39 13 21 1006.6 1005.8 0.0
16/10:28pm 28.8 27.7 18.6 54 6.6 ENE 22 39 12 21 1006.5 1005.7 0.0
16/10:00pm 27.3 24.5 5.0 24 11.5 SSW 9 11 5 6 1006.1 1005.3 0.0
16/09:30pm 29.3 25.9 6.0 23 12.3 SW 13 15 7 8 1005.4 1004.6 0.0
16/09:00pm 30.8 27.4 6.0 21 13.3 SW 13 17 7 9 1005.1 1004.3 0.0
16/08:30pm 31.9 28.0 5.4 19 14.1 SW 15 20 8 11 1004.7 1003.9 0.0
16/08:00pm 33.2 29.2 4.9 17 15.1 SW 15 20 8 11 1004.4 1003.6 0.0
16/07:30pm 34.7 29.5 3.3 14 16.4 WSW 20 26 11 14 1003.8 1003.0 0.0
16/07:00pm 35.8 31.3 2.0 12 17.5 WSW 15 26 8 14 1003.4 1002.6 0.0
16/06:30pm 36.4 31.6 -0.1 10 18.3 W 15 24 8 13 1003.0 1002.2 0.0
16/06:00pm 37.1 31.4 0.4 10 18.7 WNW 20 28 11 15 1002.7 1001.9 0.0
16/05:30pm 37.2 31.3 -0.9 9 18.9 W 20 30 11 16 1002.5 1001.7 0.0
16/05:00pm 37.5 31.8 -0.7 9 19.1 WNW 19 28 10 15 1002.6 1001.8 0.0

Other Formats:

Comma delimited format used in spreadsheet applications
http://www.bom.gov.au/fwo/IDN60801/IDN60801.95715.axf

JavaScript Object Notation format (JSON) in row-major order
http://www.bom.gov.au/fwo/IDN60801/IDN60801.95715.json